Time;durP1;ratioP1;P1;durP2;ratioP2;P2;SDS_P1;SDS_P2;PMS_P1;PMS_P2;Temp;Humidity;BMP_temperature;BMP_pressure;BME280_temperature;BME280_humidity;BME280_pressure;Samples;Min_cycle;Max_cycle;Signal;HPM_P1;HPM_P2
2022/03/01 00:00:11;;;;;;;0.20;0.20;;;1.10;99.90;;;;;;5103978;27;20565;-89
2022/03/01 00:02:38;;;;;;;0.20;0.20;;;1.00;99.90;;;;;;5121083;27;20042;-89
2022/03/01 00:05:05;;;;;;;0.20;0.20;;;1.10;99.90;;;;;;5120473;27;20073;-89
2022/03/01 00:07:32;;;;;;;0.20;0.20;;;1.00;99.90;;;;;;5137652;27;20042;-89
2022/03/01 00:09:58;;;;;;;0.10;0.10;;;1.30;99.90;;;;;;5103593;27;20035;-89
2022/03/01 00:12:25;;;;;;;0.20;0.20;;;1.20;99.90;;;;;;5103377;27;20100;-89
2022/03/01 00:14:52;;;;;;;0.30;0.30;;;2.20;99.90;;;;;;5115643;28;20063;-86
2022/03/01 00:17:19;;;;;;;0.20;0.20;;;2.10;99.90;;;;;;5116067;28;20039;-86
2022/03/01 00:19:46;;;;;;;0.30;0.30;;;1.70;99.90;;;;;;5098562;28;20522;-87
2022/03/01 00:22:12;;;;;;;0.20;0.20;;;1.10;99.90;;;;;;5115441;28;20044;-87
2022/03/01 00:24:39;;;;;;;0.43;0.35;;;0.70;99.90;;;;;;5115502;28;20032;-86
2022/03/01 00:27:06;;;;;;;0.20;0.20;;;0.70;99.90;;;;;;5115069;28;20130;-90
2022/03/01 00:29:36;;;;;;;0.30;0.30;;;1.60;99.90;;;;;;5115439;28;20042;-89
2022/03/01 00:32:03;;;;;;;0.20;0.20;;;0.80;99.90;;;;;;5115249;28;20047;-89
2022/03/01 00:34:29;;;;;;;0.20;0.20;;;0.80;99.90;;;;;;5098693;28;20043;-87
2022/03/01 00:36:56;;;;;;;0.25;0.25;;;1.20;99.90;;;;;;5131449;28;20036;-87
2022/03/01 00:39:23;;;;;;;0.20;0.20;;;0.70;99.90;;;;;;5131942;28;20552;-87
2022/03/01 00:41:49;;;;;;;0.20;0.20;;;1.40;99.90;;;;;;5098364;28;20078;-89
2022/03/01 00:44:16;;;;;;;0.30;0.30;;;0.90;99.90;;;;;;5131824;28;20088;-89
2022/03/01 00:46:43;;;;;;;0.20;0.20;;;2.00;99.90;;;;;;5132178;28;20189;-89
2022/03/01 00:49:10;;;;;;;0.20;0.20;;;0.70;99.90;;;;;;5114964;28;20502;-90
2022/03/01 00:51:37;;;;;;;0.20;0.20;;;0.50;99.90;;;;;;5132380;28;20036;-90
2022/03/01 00:54:04;;;;;;;0.20;0.20;;;1.70;99.90;;;;;;5131665;28;20039;-89
2022/03/01 00:56:30;;;;;;;0.30;0.30;;;0.50;99.90;;;;;;5098782;28;20507;-90
2022/03/01 00:58:58;;;;;;;0.20;0.20;;;1.60;99.90;;;;;;5114921;28;20067;-89
2022/03/01 01:01:25;;;;;;;0.30;0.30;;;0.70;99.90;;;;;;5115397;28;20130;-89
2022/03/01 01:03:52;;;;;;;0.20;0.20;;;1.40;99.90;;;;;;5098135;28;20162;-87
2022/03/01 01:06:19;;;;;;;0.30;0.30;;;1.60;99.90;;;;;;5115340;28;20028;-90
2022/03/01 01:08:46;;;;;;;0.20;0.20;;;1.50;99.90;;;;;;5148457;28;20126;-89
2022/03/01 01:11:12;;;;;;;0.30;0.30;;;0.60;99.90;;;;;;5114552;28;20071;-89
2022/03/01 01:13:39;;;;;;;0.30;0.30;;;1.20;99.90;;;;;;5133139;27;20044;-86
2022/03/01 01:16:06;;;;;;;0.20;0.20;;;1.30;99.90;;;;;;5075588;27;1225763;-87
2022/03/01 01:18:33;;;;;;;0.20;0.20;;;0.20;99.90;;;;;;5102339;27;20047;-89
2022/03/01 01:21:00;;;;;;;0.30;0.30;;;1.40;99.90;;;;;;5135442;27;20142;-90
2022/03/01 01:23:26;;;;;;;0.30;0.30;;;0.20;99.90;;;;;;5117991;27;20122;-87
2022/03/01 01:25:53;;;;;;;0.20;0.20;;;0.50;99.90;;;;;;5102368;27;20425;-90
2022/03/01 01:28:20;;;;;;;0.20;0.20;;;1.30;99.90;;;;;;5118965;27;20031;-90
2022/03/01 01:30:47;;;;;;;0.20;0.20;;;0.10;99.90;;;;;;5102636;27;20067;-87
2022/03/01 01:33:14;;;;;;;0.30;0.30;;;0.10;99.90;;;;;;5118486;27;20495;-89
2022/03/01 01:35:40;;;;;;;0.30;0.30;;;1.20;99.90;;;;;;5118905;27;20053;-90
2022/03/01 01:38:07;;;;;;;0.30;0.30;;;0.00;99.90;;;;;;5102310;27;20041;-90
2022/03/01 01:40:34;;;;;;;0.30;0.30;;;0.00;99.90;;;;;;5102341;27;20487;-90
2022/03/01 01:43:02;;;;;;;0.20;0.20;;;1.20;99.90;;;;;;5118308;27;20061;-90
2022/03/01 01:45:30;;;;;;;0.20;0.20;;;-0.10;99.90;;;;;;5135709;27;20043;-86
2022/03/01 01:47:59;;;;;;;0.50;0.50;;;1.10;99.90;;;;;;5135363;27;20039;-87
2022/03/01 01:50:28;;;;;;;0.40;0.40;;;1.40;99.90;;;;;;5135723;27;20070;-89
2022/03/01 01:52:55;;;;;;;0.20;0.20;;;0.00;99.90;;;;;;5118662;27;20129;-87
2022/03/01 01:55:23;;;;;;;0.52;0.52;;;-0.20;99.90;;;;;;5102545;27;20093;-90
2022/03/01 01:57:50;;;;;;;0.20;0.20;;;1.10;99.90;;;;;;5135603;27;20039;-90
2022/03/01 02:00:17;;;;;;;0.20;0.20;;;1.00;99.90;;;;;;5118719;27;20047;-90
2022/03/01 02:02:44;;;;;;;0.30;0.30;;;1.30;99.90;;;;;;5118593;27;20043;-87
2022/03/01 02:05:12;;;;;;;0.30;0.30;;;0.10;99.90;;;;;;5134903;27;20068;-87
2022/03/01 02:07:48;;;;;;;0.40;0.40;;;0.10;99.90;;;;;;5135411;27;20032;-87
2022/03/01 02:10:16;;;;;;;0.20;0.20;;;1.30;99.90;;;;;;5135169;27;20045;-90
2022/03/01 02:12:44;;;;;;;0.20;0.20;;;1.40;99.90;;;;;;5135253;27;20506;-89
2022/03/01 02:15:11;;;;;;;0.30;0.30;;;1.10;99.90;;;;;;5117947;27;20054;-87
2022/03/01 02:17:40;;;;;;;0.30;0.30;;;0.10;99.90;;;;;;5101612;27;20074;-87
2022/03/01 02:20:13;;;;;;;0.30;0.30;;;1.30;99.90;;;;;;5134446;27;20043;-87
2022/03/01 02:22:40;;;;;;;0.30;0.30;;;0.00;99.90;;;;;;5134927;27;20039;-87
2022/03/01 02:25:08;;;;;;;0.30;0.30;;;0.00;99.90;;;;;;5117644;28;20035;-90
2022/03/01 02:27:35;;;;;;;0.30;0.30;;;0.00;99.90;;;;;;5117872;27;20099;-87
2022/03/01 02:30:03;;;;;;;0.20;0.20;;;0.00;99.90;;;;;;5117830;27;20125;-90
2022/03/01 02:32:30;;;;;;;0.30;0.30;;;0.00;99.90;;;;;;5134803;27;20039;-87
2022/03/01 02:34:57;;;;;;;0.28;0.28;;;0.00;99.90;;;;;;5134941;27;20441;-90
2022/03/01 02:37:24;;;;;;;0.22;0.22;;;0.00;99.90;;;;;;5117568;27;20041;-91
2022/03/01 02:39:53;;;;;;;0.22;0.22;;;0.10;99.90;;;;;;5117715;27;20051;-90
2022/03/01 02:42:21;;;;;;;0.20;0.20;;;1.40;99.90;;;;;;5101502;27;20039;-87
2022/03/01 02:44:49;;;;;;;0.20;0.20;;;0.00;99.90;;;;;;5101247;28;20039;-87
2022/03/01 02:47:16;;;;;;;0.30;0.30;;;1.30;99.90;;;;;;5134700;28;20039;-90
2022/03/01 02:49:43;;;;;;;0.20;0.20;;;1.10;99.90;;;;;;5118347;28;20122;-86
2022/03/01 02:52:10;;;;;;;0.30;0.30;;;1.10;99.90;;;;;;5118089;28;20070;-90
2022/03/01 02:54:37;;;;;;;0.25;0.25;;;0.60;99.90;;;;;;5117631;28;20035;-87
2022/03/01 02:57:04;;;;;;;0.30;0.30;;;-0.10;99.90;;;;;;5117482;28;20035;-90
2022/03/01 02:59:31;;;;;;;0.20;0.20;;;-0.10;99.90;;;;;;5134685;28;20039;-87
2022/03/01 03:01:58;;;;;;;0.20;0.20;;;1.00;99.90;;;;;;5134711;28;20032;-90
2022/03/01 03:04:25;;;;;;;0.30;0.30;;;1.10;99.90;;;;;;5134343;28;20053;-90
2022/03/01 03:06:52;;;;;;;0.20;0.20;;;1.00;99.90;;;;;;5118054;28;20039;-89
2022/03/01 03:09:21;;;;;;;0.20;0.20;;;-0.10;99.90;;;;;;5134321;28;20035;-87
2022/03/01 03:11:48;;;;;;;1.23;1.17;;;-0.10;99.90;;;;;;5135413;28;20131;-87
2022/03/01 03:14:15;;;;;;;0.22;0.22;;;0.40;99.90;;;;;;5117313;28;20146;-87
2022/03/01 03:16:42;;;;;;;0.30;0.30;;;-0.20;99.90;;;;;;5117630;28;20042;-91
2022/03/01 03:19:10;;;;;;;0.20;0.20;;;-0.20;99.90;;;;;;5115855;27;20506;-91
2022/03/01 03:21:37;;;;;;;0.30;0.30;;;0.90;99.90;;;;;;5121395;27;20046;-88
2022/03/01 03:24:04;;;;;;;0.30;0.30;;;1.00;99.90;;;;;;5120602;27;20043;-87
2022/03/01 03:26:31;;;;;;;0.20;0.20;;;-0.30;99.90;;;;;;5120707;27;20038;-87
2022/03/01 03:28:57;;;;;;;0.30;0.30;;;1.10;99.90;;;;;;5137879;27;20034;-91
2022/03/01 03:31:24;;;;;;;0.50;0.50;;;-0.30;99.90;;;;;;5154368;27;20121;-91
2022/03/01 03:33:51;;;;;;;0.20;0.20;;;-0.40;99.90;;;;;;5137965;27;20085;-90
2022/03/01 03:36:17;;;;;;;0.30;0.30;;;-0.30;99.90;;;;;;5138149;27;20484;-91
2022/03/01 03:38:44;;;;;;;0.30;0.30;;;0.70;99.90;;;;;;5137647;27;20046;-87
2022/03/01 03:41:11;;;;;;;0.20;0.20;;;0.80;99.90;;;;;;5154705;27;20323;-88
2022/03/01 03:43:37;;;;;;;0.20;0.20;;;0.80;99.90;;;;;;5137692;27;20039;-87
2022/03/01 03:46:04;;;;;;;0.30;0.30;;;-0.40;99.90;;;;;;5155181;27;20030;-88
2022/03/01 03:48:31;;;;;;;0.20;0.20;;;0.90;99.90;;;;;;5129092;27;20038;-91
2022/03/01 03:50:58;;;;;;;0.30;0.30;;;0.10;99.90;;;;;;5120918;27;20038;-87
2022/03/01 03:53:25;;;;;;;0.30;0.30;;;0.50;99.90;;;;;;5137461;27;20046;-89
2022/03/01 03:55:51;;;;;;;0.28;0.28;;;0.50;99.90;;;;;;5120403;27;20035;-90
2022/03/01 03:58:18;;;;;;;0.30;0.30;;;-0.30;99.90;;;;;;5120452;27;20126;-87
2022/03/01 04:00:45;;;;;;;0.30;0.30;;;0.80;99.90;;;;;;5103754;27;20736;-87
2022/03/01 04:03:12;;;;;;;0.30;0.30;;;0.20;99.90;;;;;;5136899;27;20054;-90
2022/03/01 04:05:39;;;;;;;0.30;0.30;;;-0.60;99.90;;;;;;5137669;27;20552;-87
2022/03/01 04:08:06;;;;;;;0.25;0.25;;;0.70;99.90;;;;;;5120754;27;20134;-87
2022/03/01 04:10:33;;;;;;;0.20;0.20;;;-0.60;99.90;;;;;;5120345;27;20133;-87
2022/03/01 04:12:59;;;;;;;0.22;0.22;;;-0.60;99.90;;;;;;5137460;27;20043;-91
2022/03/01 04:15:26;;;;;;;0.30;0.30;;;0.40;99.90;;;;;;5116208;28;20531;-91
2022/03/01 04:17:53;;;;;;;0.30;0.30;;;0.50;99.90;;;;;;5116928;28;20039;-87
2022/03/01 04:20:21;;;;;;;0.20;0.20;;;-0.60;99.90;;;;;;5099797;28;20545;-91
2022/03/01 04:22:48;;;;;;;0.30;0.30;;;-0.50;99.90;;;;;;5116835;28;20127;-87
2022/03/01 04:25:15;;;;;;;0.30;0.30;;;-0.50;99.90;;;;;;5099457;28;20181;-90
2022/03/01 04:27:42;;;;;;;0.30;0.30;;;-0.20;99.90;;;;;;5100098;28;20519;-87
2022/03/01 04:30:11;;;;;;;0.30;0.30;;;0.30;99.90;;;;;;5134124;28;20032;-87
2022/03/01 04:32:38;;;;;;;0.30;0.30;;;-0.50;99.90;;;;;;5133443;28;20054;-88
2022/03/01 04:35:06;;;;;;;0.40;0.40;;;1.00;99.90;;;;;;5099706;28;20044;-90
2022/03/01 04:37:33;;;;;;;0.30;0.30;;;-0.40;99.90;;;;;;5132825;28;20050;-87
2022/03/01 04:39:59;;;;;;;0.30;0.30;;;0.50;99.90;;;;;;5116340;28;20040;-90
2022/03/01 04:42:26;;;;;;;0.25;0.25;;;1.00;99.90;;;;;;5132840;28;20035;-87
2022/03/01 04:44:53;;;;;;;0.20;0.20;;;0.90;99.90;;;;;;5116355;28;20039;-87
2022/03/01 04:47:19;;;;;;;0.30;0.30;;;0.90;99.90;;;;;;5133449;28;20119;-87
2022/03/01 04:49:49;;;;;;;0.20;0.20;;;1.10;99.90;;;;;;5116383;28;20127;-91
2022/03/01 04:52:15;;;;;;;0.20;0.20;;;-0.40;99.90;;;;;;5099890;28;20378;-87
2022/03/01 04:54:42;;;;;;;0.20;0.20;;;0.90;99.90;;;;;;5115871;28;20046;-91
2022/03/01 04:57:09;;;;;;;0.25;0.25;;;0.90;99.90;;;;;;5133009;28;20062;-87
2022/03/01 04:59:36;;;;;;;0.20;0.20;;;1.20;99.90;;;;;;5114843;28;20122;-90
2022/03/01 05:02:03;;;;;;;0.30;0.30;;;0.70;99.90;;;;;;5099715;28;20046;-87
2022/03/01 05:04:30;;;;;;;0.30;0.30;;;1.00;99.90;;;;;;5115890;28;20061;-87
2022/03/01 05:06:57;;;;;;;0.25;0.25;;;1.10;99.90;;;;;;5132649;28;20038;-90
2022/03/01 05:09:24;;;;;;;0.20;0.20;;;0.30;99.90;;;;;;5098844;28;20031;-91
2022/03/01 05:11:51;;;;;;;0.40;0.40;;;-0.10;99.90;;;;;;5115653;28;20036;-90
2022/03/01 05:14:19;;;;;;;0.30;0.30;;;0.90;99.90;;;;;;5133000;27;20043;-90
2022/03/01 05:16:47;;;;;;;0.20;0.20;;;0.90;99.90;;;;;;5118996;27;20099;-90
2022/03/01 05:19:14;;;;;;;0.22;0.22;;;1.30;99.90;;;;;;5102688;27;20407;-87
2022/03/01 05:21:41;;;;;;;0.28;0.28;;;1.10;99.90;;;;;;5135491;27;20057;-87
2022/03/01 05:24:08;;;;;;;0.30;0.30;;;0.80;99.90;;;;;;5135641;27;20043;-88
2022/03/01 05:26:35;;;;;;;0.25;0.25;;;1.00;99.90;;;;;;5118680;27;20488;-90
2022/03/01 05:29:02;;;;;;;0.30;0.30;;;0.50;99.90;;;;;;5102230;27;20130;-91
2022/03/01 05:31:29;;;;;;;0.25;0.25;;;0.80;99.90;;;;;;5136098;27;20070;-87
2022/03/01 05:33:56;;;;;;;0.30;0.30;;;0.10;99.90;;;;;;5119252;27;20553;-88
2022/03/01 05:36:22;;;;;;;0.20;0.20;;;1.20;99.90;;;;;;5136109;27;20038;-90
2022/03/01 05:38:49;;;;;;;0.30;0.30;;;-0.70;99.90;;;;;;5101936;27;20046;-90
2022/03/01 05:41:17;;;;;;;0.30;0.30;;;1.60;99.90;;;;;;5102284;27;20046;-87
2022/03/01 05:43:45;;;;;;;0.30;0.30;;;1.40;99.90;;;;;;5118835;27;20035;-88
2022/03/01 05:46:11;;;;;;;0.20;0.20;;;1.60;99.90;;;;;;5135739;27;20126;-88
2022/03/01 05:48:38;;;;;;;0.30;0.30;;;1.10;99.90;;;;;;5118079;27;20077;-90
2022/03/01 05:51:06;;;;;;;0.22;0.22;;;1.70;99.90;;;;;;5118441;27;20039;-91
2022/03/01 05:53:33;;;;;;;0.30;0.30;;;1.60;99.90;;;;;;5118690;27;20038;-90
2022/03/01 05:56:00;;;;;;;0.20;0.20;;;0.40;99.90;;;;;;5118390;27;20416;-90
2022/03/01 05:58:27;;;;;;;0.30;0.30;;;1.40;99.90;;;;;;5117622;27;20108;-90
2022/03/01 06:00:53;;;;;;;0.30;0.30;;;1.40;99.90;;;;;;5135531;27;20035;-87
2022/03/01 06:03:23;;;;;;;0.30;0.30;;;0.40;99.90;;;;;;5118346;27;20380;-91
2022/03/01 06:05:53;;;;;;;0.20;0.20;;;0.40;99.90;;;;;;5117754;27;20400;-91
2022/03/01 06:08:19;;;;;;;0.20;0.20;;;0.50;99.90;;;;;;5134826;27;20043;-88
2022/03/01 06:10:46;;;;;;;0.30;0.30;;;1.80;99.90;;;;;;5101641;27;20046;-90
2022/03/01 06:13:13;;;;;;;0.30;0.30;;;0.50;99.90;;;;;;5102137;27;20031;-88
2022/03/01 06:15:39;;;;;;;0.30;0.30;;;1.80;99.90;;;;;;5117022;27;20120;-87
2022/03/01 06:18:06;;;;;;;0.20;0.20;;;1.60;99.90;;;;;;5134863;27;20046;-88
2022/03/01 06:20:33;;;;;;;0.30;0.30;;;1.80;99.90;;;;;;5134434;27;20488;-91
2022/03/01 06:23:00;;;;;;;0.30;0.30;;;0.50;99.90;;;;;;5118230;27;20503;-90
2022/03/01 06:25:27;;;;;;;0.30;0.30;;;1.80;99.90;;;;;;5118056;27;20049;-88
2022/03/01 06:27:53;;;;;;;0.30;0.30;;;0.50;99.90;;;;;;5117733;27;20039;-87
2022/03/01 06:30:21;;;;;;;0.20;0.20;;;1.70;99.90;;;;;;5122097;27;20475;-90
2022/03/01 06:32:47;;;;;;;0.20;0.20;;;0.50;99.90;;;;;;5134298;27;20356;-88
2022/03/01 06:35:14;;;;;;;0.20;0.20;;;1.90;99.90;;;;;;5101362;27;20095;-90
2022/03/01 06:37:41;;;;;;;0.30;0.30;;;0.60;99.90;;;;;;5117825;28;20434;-88
2022/03/01 06:40:08;;;;;;;0.20;0.20;;;0.50;99.90;;;;;;5117965;27;20041;-91
2022/03/01 06:42:35;;;;;;;0.17;0.17;;;0.50;99.90;;;;;;5134443;27;20423;-90
2022/03/01 06:45:03;;;;;;;0.20;0.20;;;0.50;99.90;;;;;;5134553;28;20049;-88
2022/03/01 06:47:30;;;;;;;0.20;0.20;;;0.50;99.90;;;;;;5117775;28;20035;-88
2022/03/01 06:49:56;;;;;;;0.40;0.40;;;1.80;99.90;;;;;;5134558;28;20051;-88
2022/03/01 06:52:23;;;;;;;0.30;0.30;;;1.50;99.90;;;;;;5101079;28;20074;-88
2022/03/01 06:54:50;;;;;;;0.30;0.30;;;0.70;99.90;;;;;;5100418;28;20031;-88
2022/03/01 06:57:18;;;;;;;0.30;0.30;;;1.90;99.90;;;;;;5101123;28;20031;-88
2022/03/01 06:59:45;;;;;;;0.22;0.22;;;2.10;99.90;;;;;;5134161;28;20092;-92
2022/03/01 07:02:12;;;;;;;0.20;0.20;;;1.90;99.90;;;;;;5134484;28;20039;-91
2022/03/01 07:04:38;;;;;;;0.20;0.20;;;0.90;99.90;;;;;;5100951;28;20122;-91
2022/03/01 07:07:05;;;;;;;0.20;0.20;;;1.90;99.90;;;;;;5100956;28;20555;-91
2022/03/01 07:09:32;;;;;;;0.20;0.20;;;1.80;99.90;;;;;;5100986;28;20050;-87
2022/03/01 07:11:58;;;;;;;0.20;0.20;;;1.50;99.90;;;;;;5117927;28;20031;-91
2022/03/01 07:14:28;;;;;;;0.20;0.20;;;1.00;99.90;;;;;;5117650;28;20057;-91
2022/03/01 07:16:55;;;;;;;0.20;0.20;;;1.10;99.90;;;;;;5133788;28;20492;-88
2022/03/01 07:19:22;;;;;;;0.10;0.10;;;1.00;99.90;;;;;;5117217;28;20055;-91
2022/03/01 07:21:49;;;;;;;1.55;0.52;;;2.50;99.90;;;;;;5135328;27;20532;-87
2022/03/01 07:24:15;;;;;;;0.20;0.20;;;2.50;99.90;;;;;;5138285;27;20035;-87
2022/03/01 07:26:42;;;;;;;0.20;0.20;;;1.20;99.90;;;;;;5104241;27;20392;-88
2022/03/01 07:29:09;;;;;;;0.20;0.20;;;1.50;99.90;;;;;;5141757;27;20031;-92
2022/03/01 07:31:36;;;;;;;0.20;0.20;;;1.30;99.90;;;;;;5120896;27;20530;-88
2022/03/01 07:34:03;;;;;;;0.20;0.20;;;2.90;99.90;;;;;;5138260;27;20080;-87
2022/03/01 07:36:30;;;;;;;0.20;0.20;;;2.00;99.90;;;;;;5120727;27;20487;-87
2022/03/01 07:38:59;;;;;;;0.20;0.20;;;1.40;99.90;;;;;;5137598;27;20129;-90
2022/03/01 07:41:26;;;;;;;0.60;0.60;;;1.50;99.90;;;;;;5122827;27;20064;-91
2022/03/01 07:43:54;;;;;;;0.22;0.22;;;2.60;99.90;;;;;;5107886;27;20392;-88
2022/03/01 07:46:21;;;;;;;0.20;0.20;;;2.40;99.90;;;;;;5120521;27;20039;-92
2022/03/01 07:48:48;;;;;;;0.30;0.30;;;1.60;99.90;;;;;;5137888;27;20042;-92
2022/03/01 07:51:15;;;;;;;0.13;0.13;;;2.90;99.90;;;;;;5130433;27;20035;-86
2022/03/01 07:53:41;;;;;;;0.20;0.20;;;3.10;99.90;;;;;;5136499;27;20039;-90
2022/03/01 07:56:08;;;;;;;0.20;0.20;;;3.20;99.90;;;;;;5120084;27;20062;-91
2022/03/01 07:58:35;;;;;;;0.20;0.20;;;3.10;99.90;;;;;;5119598;27;20050;-88
2022/03/01 08:01:02;;;;;;;0.20;0.20;;;2.00;99.90;;;;;;5119725;27;20066;-87
2022/03/01 08:03:29;;;;;;;0.20;0.20;;;3.00;99.90;;;;;;5120131;27;20196;-89
2022/03/01 08:05:56;;;;;;;0.20;0.20;;;2.80;99.90;;;;;;5119857;27;20201;-88
2022/03/01 08:08:22;;;;;;;0.20;0.20;;;2.30;99.90;;;;;;5120382;27;20035;-87
2022/03/01 08:10:49;;;;;;;0.20;0.20;;;2.40;99.90;;;;;;5119881;27;20039;-87
2022/03/01 08:13:16;;;;;;;0.20;0.20;;;2.50;99.90;;;;;;5125436;27;20060;-88
2022/03/01 08:15:43;;;;;;;0.20;0.20;;;2.40;99.90;;;;;;5122708;28;20411;-87
2022/03/01 08:18:10;;;;;;;0.17;0.17;;;2.70;99.90;;;;;;5132947;28;20039;-89
2022/03/01 08:20:37;;;;;;;0.25;0.25;;;3.30;99.90;;;;;;5100003;28;20043;-89
2022/03/01 08:23:04;;;;;;;0.20;0.20;;;2.80;99.90;;;;;;5099164;28;20130;-87
2022/03/01 08:25:30;;;;;;;0.20;0.20;;;3.60;99.90;;;;;;5116564;28;20032;-88
2022/03/01 08:27:58;;;;;;;0.20;0.20;;;3.50;99.90;;;;;;5116381;28;20036;-86
2022/03/01 08:30:26;;;;;;;0.40;0.40;;;3.50;99.90;;;;;;5116024;28;20478;-87
2022/03/01 08:32:53;;;;;;;0.20;0.20;;;3.00;99.90;;;;;;5132299;28;20133;-87
2022/03/01 08:35:20;;;;;;;0.20;0.20;;;3.20;99.90;;;;;;5096237;28;20040;-87
2022/03/01 08:37:47;;;;;;;0.22;0.22;;;2.10;99.90;;;;;;5112707;28;20373;-87
2022/03/01 08:40:14;;;;;;;0.13;0.13;;;3.20;99.90;;;;;;5113084;28;20043;-88
2022/03/01 08:42:42;;;;;;;0.10;0.10;;;3.20;99.90;;;;;;5114405;28;20127;-86
2022/03/01 08:45:09;;;;;;;0.15;0.15;;;3.30;99.90;;;;;;5115919;27;20119;-87
2022/03/01 08:47:37;;;;;;;0.10;0.10;;;3.40;99.90;;;;;;5103072;27;20035;-90
2022/03/01 08:50:05;;;;;;;0.10;0.10;;;4.20;99.90;;;;;;5104351;28;20039;-87
2022/03/01 08:52:31;;;;;;;0.10;0.10;;;3.40;99.90;;;;;;5082636;28;20532;-87
2022/03/01 08:54:58;;;;;;;0.10;0.10;;;3.50;99.90;;;;;;5081662;28;20119;-85
2022/03/01 08:57:25;;;;;;;0.10;0.10;;;4.50;99.90;;;;;;5115275;28;20100;-85
2022/03/01 08:59:51;;;;;;;0.10;0.10;;;4.30;99.90;;;;;;5097533;28;20777;-88
2022/03/01 09:02:20;;;;;;;0.10;0.10;;;3.70;99.90;;;;;;5115478;28;20036;-90
2022/03/01 09:04:47;;;;;;;0.10;0.10;;;3.70;99.90;;;;;;5098911;28;20048;-83
2022/03/01 09:07:14;;;;;;;0.10;0.10;;;3.70;99.90;;;;;;5097971;28;20040;-87
2022/03/01 09:09:41;;;;;;;0.10;0.10;;;4.40;99.90;;;;;;5081509;28;20093;-88
2022/03/01 09:12:08;;;;;;;0.20;0.20;;;3.90;99.90;;;;;;5081633;28;20100;-88
2022/03/01 09:14:35;;;;;;;0.20;0.20;;;3.90;99.90;;;;;;5125545;27;20059;-85
2022/03/01 09:17:02;;;;;;;0.10;0.10;;;3.90;99.90;;;;;;5101884;27;21079;-89
2022/03/01 09:19:29;;;;;;;0.10;0.10;;;4.00;99.90;;;;;;5145893;28;20082;-86
2022/03/01 09:21:56;;;;;;;0.10;0.10;;;4.10;99.90;;;;;;5130968;28;20476;-85
2022/03/01 09:24:23;;;;;;;0.10;0.10;;;5.30;99.90;;;;;;5097951;28;20061;-86
2022/03/01 09:26:49;;;;;;;0.20;0.20;;;4.30;99.90;;;;;;5097671;28;20044;-88
2022/03/01 09:29:16;;;;;;;0.10;0.10;;;4.40;99.90;;;;;;5130747;28;20039;-85
2022/03/01 09:31:43;;;;;;;0.10;0.10;;;5.30;99.90;;;;;;5114761;28;20075;-87
2022/03/01 09:34:10;;;;;;;0.10;0.10;;;4.40;99.90;;;;;;5098315;28;20478;-89
2022/03/01 09:36:37;;;;;;;0.10;0.10;;;4.60;99.90;;;;;;5097887;28;20050;-86
2022/03/01 09:39:05;;;;;;;0.35;0.28;;;4.40;99.90;;;;;;5114416;28;20771;-85
2022/03/01 09:41:33;;;;;;;0.10;0.10;;;5.30;99.90;;;;;;5097495;28;20043;-85
2022/03/01 09:44:01;;;;;;;0.10;0.10;;;4.60;99.90;;;;;;5126572;28;20051;-86
2022/03/01 09:46:28;;;;;;;0.10;0.10;;;4.60;99.90;;;;;;5105529;28;20031;-86
2022/03/01 09:48:55;;;;;;;0.20;0.20;;;5.10;99.90;;;;;;5080865;28;20043;-88
2022/03/01 09:51:23;;;;;;;0.10;0.10;;;4.80;99.90;;;;;;5129407;28;20044;-86
2022/03/01 09:53:52;;;;;;;0.10;0.10;;;4.80;99.90;;;;;;5152251;27;20044;-86
2022/03/01 09:56:19;;;;;;;2.25;0.40;;;4.90;99.90;;;;;;5130904;28;20101;-88
2022/03/01 09:58:47;;;;;;;0.10;0.10;;;5.00;99.90;;;;;;5147500;28;20084;-87
2022/03/01 10:01:16;;;;;;;0.10;0.10;;;5.10;99.90;;;;;;5113597;28;20046;-85
2022/03/01 10:03:48;;;;;;;0.10;0.10;;;5.90;99.90;;;;;;5147924;27;20040;-86
2022/03/01 10:06:18;;;;;;;0.20;0.20;;;5.20;99.90;;;;;;5114339;28;20031;-88
2022/03/01 10:08:50;;;;;;;0.10;0.10;;;5.30;99.90;;;;;;5147619;28;20484;-85
2022/03/01 10:11:18;;;;;;;0.10;0.10;;;5.20;99.90;;;;;;5163497;27;20114;-88
2022/03/01 10:13:45;;;;;;;0.10;0.10;;;6.00;99.90;;;;;;5097778;28;20097;-88
2022/03/01 10:16:16;;;;;;;0.10;0.10;;;5.40;99.90;;;;;;5080664;28;20059;-89
2022/03/01 10:18:54;;;;;;;0.10;0.10;;;5.40;99.90;;;;;;5131073;28;20420;-85
2022/03/01 10:21:23;;;;;;;0.10;0.10;;;5.70;99.90;;;;;;5139643;27;20040;-86
2022/03/01 10:23:53;;;;;;;0.10;0.10;;;6.40;99.90;;;;;;5131807;28;20055;-86
2022/03/01 10:26:23;;;;;;;0.10;0.10;;;5.70;99.90;;;;;;5110569;28;20035;-86
2022/03/01 10:28:52;;;;;;;0.08;0.08;;;6.10;99.90;;;;;;5110174;28;20032;-88
2022/03/01 10:31:25;;;;;;;0.10;0.10;;;5.70;99.90;;;;;;5103918;28;20036;-89
2022/03/01 10:34:06;;;;;;;0.00;0.00;;;6.30;99.90;;;;;;5131037;28;20043;-88
2022/03/01 10:36:48;;;;;;;0.10;0.10;;;5.80;99.90;;;;;;5130568;28;20043;-86
2022/03/01 10:39:16;;;;;;;0.10;0.10;;;5.90;99.90;;;;;;5131033;28;20035;-85
2022/03/01 10:41:46;;;;;;;0.10;0.10;;;5.90;99.90;;;;;;5130194;28;20047;-88
2022/03/01 10:44:22;;;;;;;0.10;0.10;;;6.10;99.90;;;;;;5129970;28;20408;-88
2022/03/01 10:46:50;;;;;;;0.20;0.20;;;6.10;99.90;;;;;;5131007;28;20044;-88
2022/03/01 10:49:22;;;;;;;0.00;0.00;;;6.20;99.90;;;;;;5130827;28;20121;-86
2022/03/01 10:51:55;;;;;;;0.38;0.30;;;6.30;99.90;;;;;;5130215;28;20400;-86
2022/03/01 10:54:36;;;;;;;0.10;0.10;;;6.40;99.90;;;;;;5130493;28;20043;-89
2022/03/01 10:57:05;;;;;;;0.10;0.10;;;6.50;99.90;;;;;;5134538;28;20124;-89
2022/03/01 10:59:34;;;;;;;0.35;0.35;;;6.60;99.90;;;;;;5117746;28;20039;-90
2022/03/01 11:02:03;;;;;;;0.10;0.10;;;7.20;99.90;;;;;;5134392;28;20492;-88
2022/03/01 11:04:30;;;;;;;0.10;0.10;;;6.70;99.90;;;;;;5100893;28;20544;-86
2022/03/01 11:06:59;;;;;;;0.10;0.10;;;6.80;99.90;;;;;;5134591;28;20032;-90
2022/03/01 11:09:31;;;;;;;0.00;0.00;;;6.90;99.90;;;;;;5134859;28;20035;-89
2022/03/01 11:11:59;;;;;;;0.00;0.00;;;7.10;99.90;;;;;;5134448;28;20127;-88
2022/03/01 11:14:31;;;;;;;0.10;0.10;;;7.20;99.90;;;;;;5117413;28;20039;-86
2022/03/01 11:17:27;;;;;;;0.10;0.10;;;7.50;99.90;;;;;;5133957;28;20775;-88
2022/03/01 11:20:06;;;;;;;0.10;0.10;;;7.50;99.90;;;;;;5135441;28;20050;-88
2022/03/01 11:23:07;;;;;;;0.05;0.05;;;7.20;99.90;;;;;;5150486;28;20114;-88
2022/03/01 11:25:39;;;;;;;0.10;0.10;;;7.30;99.90;;;;;;5127945;28;20051;-86
2022/03/01 11:28:09;;;;;;;0.10;0.10;;;7.40;99.90;;;;;;5140857;28;20035;-88
2022/03/01 11:30:38;;;;;;;0.10;0.10;;;7.40;99.90;;;;;;5133984;28;20039;-88
2022/03/01 11:33:06;;;;;;;0.28;0.20;;;7.50;99.90;;;;;;5134146;28;20067;-88
2022/03/01 11:35:37;;;;;;;0.13;0.13;;;7.60;99.90;;;;;;5133456;28;20039;-85
2022/03/01 11:38:05;;;;;;;0.10;0.10;;;7.60;99.90;;;;;;5133193;28;20406;-86
2022/03/01 11:40:42;;;;;;;0.10;0.10;;;7.70;99.90;;;;;;5151010;28;20035;-86
2022/03/01 11:43:22;;;;;;;0.10;0.10;;;7.70;99.90;;;;;;5133536;28;20051;-88
2022/03/01 11:45:51;;;;;;;0.10;0.10;;;7.70;99.90;;;;;;5133882;28;20040;-86
2022/03/01 11:48:24;;;;;;;0.10;0.10;;;7.70;99.90;;;;;;5149576;28;20047;-88
2022/03/01 11:51:03;;;;;;;0.13;0.13;;;7.70;99.90;;;;;;5133545;28;20046;-86
2022/03/01 11:53:34;;;;;;;0.10;0.10;;;7.70;99.90;;;;;;5133929;28;20032;-85
2022/03/01 11:56:03;;;;;;;0.00;0.00;;;7.70;99.90;;;;;;5132633;28;20450;-88
2022/03/01 11:58:34;;;;;;;0.10;0.10;;;7.80;99.90;;;;;;5133430;28;20031;-86
2022/03/01 12:01:05;;;;;;;0.00;0.00;;;7.80;99.90;;;;;;5133184;28;20040;-88
2022/03/01 12:03:35;;;;;;;0.10;0.10;;;7.90;99.90;;;;;;5114236;28;20515;-84
2022/03/01 12:06:04;;;;;;;0.10;0.10;;;7.90;99.90;;;;;;5130170;28;20031;-86
2022/03/01 12:08:31;;;;;;;0.10;0.10;;;8.00;99.90;;;;;;5114999;28;20036;-86
2022/03/01 12:11:04;;;;;;;0.20;0.20;;;8.00;99.90;;;;;;5098603;28;20040;-86
2022/03/01 12:13:40;;;;;;;0.10;0.10;;;8.00;99.90;;;;;;5115445;28;20411;-88
2022/03/01 12:16:09;;;;;;;0.10;0.10;;;8.00;99.90;;;;;;5095940;28;20059;-88
2022/03/01 12:18:38;;;;;;;0.15;0.15;;;8.00;99.90;;;;;;5103844;28;20123;-86
2022/03/01 12:21:06;;;;;;;0.10;0.10;;;8.00;99.90;;;;;;5100778;28;20047;-86
2022/03/01 12:23:34;;;;;;;0.17;0.10;;;8.00;99.90;;;;;;5096398;28;20052;-85
2022/03/01 12:26:06;;;;;;;0.10;0.10;;;8.00;99.90;;;;;;5084425;28;20031;-87
2022/03/01 12:28:38;;;;;;;0.00;0.00;;;8.20;99.90;;;;;;5115728;28;20093;-86
2022/03/01 12:31:18;;;;;;;0.20;0.20;;;7.90;99.90;;;;;;5114786;28;20046;-85
2022/03/01 12:33:53;;;;;;;0.35;0.30;;;8.00;99.90;;;;;;5131943;28;20078;-88
2022/03/01 12:36:24;;;;;;;0.10;0.10;;;8.00;99.90;;;;;;5115138;28;20079;-88
2022/03/01 12:38:56;;;;;;;0.10;0.10;;;7.90;99.90;;;;;;5115750;28;20035;-86
2022/03/01 12:41:23;;;;;;;0.05;0.05;;;8.00;99.90;;;;;;5114266;28;20571;-88
2022/03/01 12:43:55;;;;;;;0.10;0.10;;;8.00;99.90;;;;;;5110269;28;20385;-85
2022/03/01 12:46:22;;;;;;;0.00;0.00;;;8.00;99.90;;;;;;5079363;28;20131;-85
2022/03/01 12:48:50;;;;;;;0.10;0.10;;;8.50;99.90;;;;;;5067298;28;20027;-85
2022/03/01 12:51:17;;;;;;;0.08;0.08;;;8.00;99.90;;;;;;5078889;28;20035;-85
2022/03/01 12:53:51;;;;;;;0.10;0.10;;;8.00;99.90;;;;;;5061878;28;20093;-84
2022/03/01 12:56:23;;;;;;;0.10;0.10;;;8.40;99.90;;;;;;5089651;28;20036;-86
2022/03/01 12:58:53;;;;;;;0.10;0.10;;;8.30;99.90;;;;;;5119248;28;20035;-88